Time;durP1;ratioP1;P1;durP2;ratioP2;P2;SDS_P1;SDS_P2;PMS_P1;PMS_P2;Temp;Humidity;BMP_temperature;BMP_pressure;BME280_temperature;BME280_humidity;BME280_pressure;Samples;Min_cycle;Max_cycle;Signal;HPM_P1;HPM_P2
2022/05/08 00:00:14;;;;;;;15.85;2.63;;;7.40;99.90;;;;;;5111503;27;20027;-74
2022/05/08 00:02:40;;;;;;;20.17;2.83;;;7.40;99.90;;;;;;5130366;27;20406;-74
2022/05/08 00:05:12;;;;;;;12.60;3.30;;;8.70;99.90;;;;;;5110384;27;20028;-75
2022/05/08 00:07:38;;;;;;;21.05;3.00;;;7.40;99.90;;;;;;5111302;27;20059;-75
2022/05/08 00:10:04;;;;;;;11.63;2.45;;;7.30;99.90;;;;;;5129085;27;20043;-74
2022/05/08 00:12:30;;;;;;;10.60;2.70;;;7.30;99.90;;;;;;5094763;27;20078;-74
2022/05/08 00:14:55;;;;;;;22.73;3.05;;;7.30;99.90;;;;;;5110747;27;20041;-74
2022/05/08 00:17:21;;;;;;;17.17;2.80;;;7.30;99.90;;;;;;5110709;27;20558;-74
2022/05/08 00:19:49;;;;;;;19.10;2.47;;;7.50;99.90;;;;;;5111361;27;20077;-74
2022/05/08 00:22:15;;;;;;;11.00;2.42;;;7.30;99.90;;;;;;5110663;27;20122;-74
2022/05/08 00:24:41;;;;;;;17.92;2.90;;;7.30;99.90;;;;;;5111234;27;20082;-74
2022/05/08 00:27:07;;;;;;;15.68;2.47;;;7.30;99.90;;;;;;5109832;27;20113;-74
2022/05/08 00:29:33;;;;;;;9.70;2.10;;;7.30;99.90;;;;;;5110998;27;20069;-75
2022/05/08 00:31:59;;;;;;;15.20;2.33;;;7.30;99.90;;;;;;5110309;27;20075;-74
2022/05/08 00:34:25;;;;;;;15.60;3.35;;;7.30;99.90;;;;;;5110750;27;20043;-74
2022/05/08 00:36:51;;;;;;;9.93;2.70;;;7.30;99.90;;;;;;5111015;27;20092;-74
2022/05/08 00:39:18;;;;;;;13.68;2.67;;;7.30;99.90;;;;;;5128235;27;20040;-74
2022/05/08 00:41:45;;;;;;;10.85;3.38;;;7.30;99.90;;;;;;5129549;27;20051;-74
2022/05/08 00:44:12;;;;;;;12.20;3.20;;;7.20;99.90;;;;;;5109652;27;20118;-73
2022/05/08 00:46:39;;;;;;;20.88;2.80;;;7.30;99.90;;;;;;5110929;27;20495;-75
2022/05/08 00:49:04;;;;;;;10.57;2.65;;;7.20;99.90;;;;;;5128735;27;20047;-75
2022/05/08 00:51:31;;;;;;;15.25;2.28;;;8.40;99.90;;;;;;5128878;27;20118;-74
2022/05/08 00:54:00;;;;;;;20.50;2.17;;;7.20;99.90;;;;;;5093999;27;20051;-74
2022/05/08 00:56:26;;;;;;;8.77;2.15;;;7.20;99.90;;;;;;5127957;27;20176;-74
2022/05/08 00:58:53;;;;;;;11.68;2.22;;;7.40;99.90;;;;;;5129260;27;20446;-74
2022/05/08 01:01:20;;;;;;;21.30;2.35;;;7.20;99.90;;;;;;5127543;27;20458;-74
2022/05/08 01:03:46;;;;;;;11.18;2.38;;;7.20;99.90;;;;;;5128887;27;20046;-75
2022/05/08 01:06:15;;;;;;;17.08;2.30;;;7.20;99.90;;;;;;5128060;27;20130;-74
2022/05/08 01:08:43;;;;;;;13.98;2.28;;;8.50;99.90;;;;;;5127791;27;20514;-74
2022/05/08 01:11:10;;;;;;;18.33;2.58;;;7.20;99.90;;;;;;5128974;27;20043;-74
2022/05/08 01:13:36;;;;;;;14.48;2.03;;;7.10;99.90;;;;;;5108985;27;20043;-74
2022/05/08 01:16:06;;;;;;;20.23;2.35;;;7.10;99.90;;;;;;5110614;27;20092;-74
2022/05/08 01:18:31;;;;;;;16.83;1.67;;;7.10;99.90;;;;;;5091841;27;20043;-75
2022/05/08 01:20:57;;;;;;;21.98;1.75;;;7.10;99.90;;;;;;5128864;27;20398;-74
2022/05/08 01:23:23;;;;;;;12.52;2.97;;;7.10;99.90;;;;;;5127890;27;20120;-74
2022/05/08 01:25:56;;;;;;;10.27;2.28;;;7.00;99.90;;;;;;5127719;27;20542;-74
2022/05/08 01:28:24;;;;;;;7.28;1.80;;;7.00;99.90;;;;;;5128353;27;20436;-75
2022/05/08 01:30:52;;;;;;;10.52;2.42;;;7.00;99.90;;;;;;5108428;27;20089;-74
2022/05/08 01:33:20;;;;;;;16.40;2.42;;;7.60;99.90;;;;;;5109745;27;20047;-75
2022/05/08 01:35:47;;;;;;;12.70;1.27;;;6.90;99.90;;;;;;5127190;27;20035;-75
2022/05/08 01:38:18;;;;;;;12.73;2.40;;;7.00;99.90;;;;;;5093071;27;20067;-74
2022/05/08 01:40:44;;;;;;;13.30;2.35;;;6.90;99.90;;;;;;5109825;27;20119;-74
2022/05/08 01:43:11;;;;;;;19.40;2.42;;;7.60;99.90;;;;;;5108355;27;20553;-74
2022/05/08 01:45:39;;;;;;;12.93;2.45;;;6.90;99.90;;;;;;5109553;27;20126;-74
2022/05/08 01:48:22;;;;;;;11.70;2.45;;;6.80;99.90;;;;;;5108320;27;20055;-74
2022/05/08 01:50:51;;;;;;;12.07;2.67;;;6.80;99.90;;;;;;5110069;27;20039;-75
2022/05/08 01:53:19;;;;;;;15.00;2.50;;;6.70;99.90;;;;;;5127833;27;20039;-75
2022/05/08 01:55:45;;;;;;;15.43;3.05;;;6.70;99.90;;;;;;5109200;27;20111;-75
2022/05/08 01:58:11;;;;;;;16.20;2.45;;;6.70;99.90;;;;;;5092608;27;20043;-74
2022/05/08 02:00:37;;;;;;;13.38;2.88;;;7.40;99.90;;;;;;5127137;27;20517;-75
2022/05/08 02:03:04;;;;;;;11.50;1.98;;;6.60;99.90;;;;;;5109502;27;20047;-75
2022/05/08 02:05:32;;;;;;;10.50;2.85;;;6.60;99.90;;;;;;5108676;28;20053;-75
2022/05/08 02:07:59;;;;;;;12.23;2.45;;;7.80;99.90;;;;;;5105623;28;20059;-75
2022/05/08 02:10:25;;;;;;;16.33;2.65;;;6.50;99.90;;;;;;5105425;28;20035;-75
2022/05/08 02:12:51;;;;;;;20.13;3.58;;;6.40;99.90;;;;;;5106472;28;20131;-75
2022/05/08 02:15:17;;;;;;;16.65;2.15;;;7.40;99.90;;;;;;5071822;28;20116;-75
2022/05/08 02:17:43;;;;;;;10.43;2.22;;;6.30;99.90;;;;;;5106365;28;20071;-75
2022/05/08 02:20:09;;;;;;;10.68;2.60;;;6.30;99.90;;;;;;5107156;28;20406;-75
2022/05/08 02:22:36;;;;;;;17.40;2.15;;;6.30;99.90;;;;;;5107146;28;20126;-75
2022/05/08 02:25:04;;;;;;;11.43;2.30;;;6.20;99.90;;;;;;5107572;28;20059;-75
2022/05/08 02:27:37;;;;;;;11.75;2.03;;;6.20;99.90;;;;;;5106640;28;20051;-75
2022/05/08 02:30:05;;;;;;;8.93;1.90;;;7.40;99.90;;;;;;5108829;28;20464;-75
2022/05/08 02:32:31;;;;;;;9.27;1.67;;;6.10;99.90;;;;;;5111299;28;20577;-74
2022/05/08 02:34:57;;;;;;;10.77;2.22;;;6.00;99.90;;;;;;5109099;28;20054;-75
2022/05/08 02:37:23;;;;;;;6.05;1.70;;;6.00;99.90;;;;;;5111695;28;20047;-74
2022/05/08 02:39:48;;;;;;;11.48;1.67;;;7.00;99.90;;;;;;5110266;28;20051;-74
2022/05/08 02:42:14;;;;;;;8.60;2.63;;;6.60;99.90;;;;;;5110796;28;20047;-75
2022/05/08 02:44:40;;;;;;;8.98;2.00;;;5.90;99.90;;;;;;5109628;28;20128;-74
2022/05/08 02:47:05;;;;;;;8.48;2.28;;;5.80;99.90;;;;;;5110035;28;20043;-75
2022/05/08 02:49:31;;;;;;;14.98;2.08;;;5.80;99.90;;;;;;5111069;28;20048;-75
2022/05/08 02:51:57;;;;;;;17.10;2.38;;;5.70;99.90;;;;;;5108769;28;20044;-75
2022/05/08 02:54:22;;;;;;;13.02;2.72;;;6.10;99.90;;;;;;5110215;28;20043;-75
2022/05/08 02:59:32;;;;;;;8.43;2.15;;;5.60;99.90;;;;;;5113212;28;20097;-75
2022/05/08 03:01:58;;;;;;;17.13;2.78;;;5.60;99.90;;;;;;5111167;28;20048;-75
2022/05/08 03:04:23;;;;;;;6.88;2.05;;;5.60;99.90;;;;;;5108074;28;20502;-75
2022/05/08 03:06:49;;;;;;;12.55;2.35;;;5.60;99.90;;;;;;5110453;28;20055;-75
2022/05/08 03:09:15;;;;;;;8.43;2.00;;;5.60;99.90;;;;;;5129333;27;20055;-75
2022/05/08 03:11:40;;;;;;;19.73;2.70;;;5.50;99.90;;;;;;5131444;27;20036;-75
2022/05/08 03:14:06;;;;;;;13.68;2.75;;;5.50;99.90;;;;;;5130283;27;20506;-75
2022/05/08 03:16:32;;;;;;;10.30;2.13;;;6.50;99.90;;;;;;5130967;27;20035;-75
2022/05/08 03:18:57;;;;;;;11.95;2.83;;;5.50;99.90;;;;;;5130763;27;20042;-75
2022/05/08 03:21:25;;;;;;;10.70;2.28;;;5.40;99.90;;;;;;5129551;27;20047;-73
2022/05/08 03:23:51;;;;;;;8.63;2.35;;;5.50;99.90;;;;;;5131126;27;20390;-74
2022/05/08 03:26:19;;;;;;;6.95;2.85;;;6.50;99.90;;;;;;5129950;27;20042;-74
2022/05/08 03:28:45;;;;;;;17.27;2.95;;;5.50;99.90;;;;;;5111990;27;20043;-74
2022/05/08 03:31:11;;;;;;;10.63;2.35;;;5.40;99.90;;;;;;5111316;27;20482;-74
2022/05/08 03:33:38;;;;;;;12.27;3.17;;;5.40;99.90;;;;;;5129962;27;20053;-74
2022/05/08 03:36:05;;;;;;;13.63;2.65;;;5.40;99.90;;;;;;5130464;27;20031;-74
2022/05/08 03:38:31;;;;;;;7.03;1.83;;;5.40;99.90;;;;;;5128872;27;20066;-74
2022/05/08 03:40:57;;;;;;;7.05;2.40;;;5.80;99.90;;;;;;5130182;27;20039;-74
2022/05/08 03:43:23;;;;;;;11.20;1.77;;;5.30;99.90;;;;;;5128994;27;20079;-75
2022/05/08 03:45:49;;;;;;;13.10;2.03;;;6.60;99.90;;;;;;5130608;27;20881;-75
2022/05/08 03:48:16;;;;;;;13.57;2.20;;;5.40;99.90;;;;;;5129822;27;20096;-75
2022/05/08 03:50:42;;;;;;;8.70;2.10;;;5.40;99.90;;;;;;5130278;27;20040;-75
2022/05/08 03:53:09;;;;;;;4.47;1.48;;;6.60;99.90;;;;;;5130184;27;20043;-76
2022/05/08 03:55:35;;;;;;;6.45;2.00;;;5.40;99.90;;;;;;5110667;27;20104;-74
2022/05/08 03:58:01;;;;;;;9.35;1.85;;;6.10;99.90;;;;;;5111921;27;20035;-74
2022/05/08 04:00:27;;;;;;;11.35;2.42;;;5.40;99.90;;;;;;5110387;27;20450;-74
2022/05/08 04:02:53;;;;;;;6.25;1.98;;;5.40;99.90;;;;;;5129782;27;20697;-74
2022/05/08 04:05:19;;;;;;;8.27;1.70;;;5.40;99.90;;;;;;5129134;27;20548;-74
2022/05/08 04:07:46;;;;;;;13.07;2.53;;;5.40;99.90;;;;;;5090801;28;20134;-74
2022/05/08 04:10:15;;;;;;;12.57;2.50;;;5.90;99.90;;;;;;5090818;28;20043;-74
2022/05/08 04:12:44;;;;;;;11.43;2.38;;;5.40;99.90;;;;;;5107060;28;20043;-75
2022/05/08 04:16:15;;;;;;;9.35;2.28;;;6.70;99.90;;;;;;5108254;28;20086;-75
2022/05/08 04:17:55;;;;;;;4.47;1.70;;;5.50;99.90;;;;;;5108233;28;20372;-75
2022/05/08 04:20:22;;;;;;;5.53;2.10;;;5.50;99.90;;;;;;5109300;28;20176;-75
2022/05/08 04:25:32;;;;;;;7.95;2.30;;;6.70;99.90;;;;;;5108138;28;20139;-75
2022/05/08 04:27:57;;;;;;;7.03;2.13;;;5.50;99.90;;;;;;5108833;28;20099;-75
2022/05/08 04:30:23;;;;;;;8.55;2.40;;;5.50;99.90;;;;;;5107937;28;20130;-75
2022/05/08 04:32:49;;;;;;;1.73;1.20;;;7.00;99.90;;;;;;5108953;28;20407;-75
2022/05/08 04:35:15;;;;;;;6.55;2.22;;;5.60;99.90;;;;;;5108328;28;20040;-75
2022/05/08 04:37:40;;;;;;;4.78;1.20;;;5.60;99.90;;;;;;5108394;28;20050;-75
2022/05/08 04:40:07;;;;;;;10.68;2.00;;;5.60;99.90;;;;;;5090180;28;20040;-73
2022/05/08 04:42:33;;;;;;;10.30;2.47;;;5.70;99.90;;;;;;5071285;28;20054;-73
2022/05/08 04:44:59;;;;;;;11.18;1.45;;;5.80;99.90;;;;;;5090913;28;20055;-74
2022/05/08 04:47:28;;;;;;;12.32;1.50;;;5.80;99.90;;;;;;5106445;28;20036;-74
2022/05/08 04:49:54;;;;;;;6.22;1.60;;;5.90;99.90;;;;;;5108548;28;20044;-74
2022/05/08 04:52:20;;;;;;;7.03;2.17;;;5.90;99.90;;;;;;5105528;28;20040;-73
2022/05/08 04:54:45;;;;;;;6.32;1.45;;;6.50;99.90;;;;;;5072884;28;20130;-74
2022/05/08 04:57:11;;;;;;;7.88;1.20;;;6.20;99.90;;;;;;5108269;28;20048;-74
2022/05/08 04:59:37;;;;;;;7.00;1.70;;;6.30;99.90;;;;;;5107464;28;20051;-75
2022/05/08 05:02:03;;;;;;;6.22;1.20;;;5.50;99.90;;;;;;5107374;28;20056;-73
2022/05/08 05:04:29;;;;;;;10.30;1.70;;;6.50;99.90;;;;;;5107037;28;20719;-74
2022/05/08 05:06:55;;;;;;;10.18;2.03;;;6.60;99.90;;;;;;5108150;28;20104;-75
2022/05/08 05:09:21;;;;;;;8.57;1.60;;;6.90;99.90;;;;;;5127383;27;20078;-74
2022/05/08 05:11:47;;;;;;;7.20;1.65;;;7.50;99.90;;;;;;5128135;27;20039;-75
2022/05/08 05:14:13;;;;;;;9.38;2.03;;;7.10;99.90;;;;;;5128654;27;20039;-75
2022/05/08 05:16:39;;;;;;;9.43;2.00;;;6.70;99.90;;;;;;5108879;27;20046;-75
2022/05/08 05:19:04;;;;;;;9.10;1.98;;;7.30;99.90;;;;;;5128721;27;20940;-74
2022/05/08 05:21:31;;;;;;;3.78;1.00;;;7.50;99.90;;;;;;5091959;27;20043;-74
2022/05/08 05:23:56;;;;;;;4.57;1.25;;;7.60;99.90;;;;;;5128757;27;20035;-75
2022/05/08 05:26:22;;;;;;;4.13;1.25;;;8.80;99.90;;;;;;5127625;27;20039;-75
2022/05/08 05:28:48;;;;;;;6.50;1.58;;;7.70;99.90;;;;;;5128148;27;20067;-73
2022/05/08 05:31:14;;;;;;;12.98;1.50;;;8.50;99.90;;;;;;5128401;27;20543;-75
2022/05/08 05:33:40;;;;;;;8.82;1.55;;;7.80;99.90;;;;;;5127443;27;20164;-74
2022/05/08 05:36:06;;;;;;;11.40;1.48;;;7.80;99.90;;;;;;5109765;27;20118;-75
2022/05/08 05:38:33;;;;;;;8.50;1.45;;;7.90;99.90;;;;;;5109094;27;20043;-75
2022/05/08 05:40:59;;;;;;;8.32;1.30;;;7.90;99.90;;;;;;5076460;27;20188;-72
2022/05/08 05:43:24;;;;;;;9.70;1.63;;;8.10;99.90;;;;;;5127612;27;20121;-74
2022/05/08 05:47:49;;;;;;;9.20;2.00;;;8.10;99.90;;;;;;5092842;27;20051;-74
2022/05/08 05:48:36;;;;;;;8.57;1.55;;;8.20;99.90;;;;;;5128470;27;20043;-75
2022/05/08 05:51:05;;;;;;;8.15;1.10;;;8.70;99.90;;;;;;5127645;27;20043;-75
2022/05/08 05:53:31;;;;;;;8.50;1.85;;;8.50;99.90;;;;;;5110512;27;20047;-76
2022/05/08 05:56:00;;;;;;;3.92;1.23;;;8.70;99.90;;;;;;5127757;27;20027;-75
2022/05/08 05:58:26;;;;;;;13.25;1.30;;;9.10;99.90;;;;;;5128695;27;20046;-76
2022/05/08 06:00:51;;;;;;;6.65;1.25;;;9.10;99.90;;;;;;5109326;27;20039;-76
2022/05/08 06:03:17;;;;;;;6.10;1.67;;;9.30;99.90;;;;;;5127245;27;20043;-76
2022/05/08 06:05:43;;;;;;;6.75;1.45;;;9.40;99.90;;;;;;5092985;28;20045;-76
2022/05/08 06:08:09;;;;;;;6.38;1.05;;;9.60;99.90;;;;;;5126064;27;20059;-77
2022/05/08 06:10:35;;;;;;;5.57;1.02;;;9.80;99.90;;;;;;5109283;28;21022;-78
2022/05/08 06:13:02;;;;;;;4.80;1.05;;;9.90;99.90;;;;;;5126549;28;20039;-77
2022/05/08 06:15:28;;;;;;;3.55;0.95;;;10.80;99.90;;;;;;5127643;28;20047;-76
2022/05/08 06:17:53;;;;;;;8.48;1.02;;;10.90;99.90;;;;;;5126922;28;20050;-77
2022/05/08 06:20:19;;;;;;;8.88;1.33;;;10.90;99.90;;;;;;5127054;28;20490;-77
2022/05/08 06:22:45;;;;;;;5.10;1.05;;;10.40;99.90;;;;;;5127592;28;20387;-76
2022/05/08 06:25:12;;;;;;;7.05;1.08;;;11.60;99.90;;;;;;5126083;28;20031;-76
2022/05/08 06:27:38;;;;;;;6.80;0.90;;;10.70;99.90;;;;;;5126831;28;20128;-76
2022/05/08 06:30:05;;;;;;;7.45;1.23;;;11.10;99.90;;;;;;5125986;28;20088;-76
2022/05/08 06:32:31;;;;;;;9.23;1.00;;;10.80;99.90;;;;;;5127251;28;20050;-76
2022/05/08 06:34:56;;;;;;;8.32;1.20;;;11.00;99.90;;;;;;5126460;28;20035;-76
2022/05/08 06:37:22;;;;;;;8.90;1.25;;;11.40;99.90;;;;;;5107827;28;20509;-76
2022/05/08 06:39:48;;;;;;;5.28;1.10;;;11.70;99.90;;;;;;5127097;28;20047;-76
2022/05/08 06:42:13;;;;;;;8.65;1.10;;;10.50;99.90;;;;;;5125616;28;20218;-76
2022/05/08 06:44:39;;;;;;;6.07;1.10;;;10.80;99.90;;;;;;5127176;28;20039;-76
2022/05/08 06:47:05;;;;;;;6.57;1.10;;;11.10;99.90;;;;;;5126405;28;20043;-78
2022/05/08 06:49:31;;;;;;;9.82;1.17;;;11.10;99.90;;;;;;5127987;28;20570;-77
2022/05/08 06:51:56;;;;;;;13.55;1.27;;;12.00;99.90;;;;;;5126231;28;20062;-76
2022/05/08 06:54:23;;;;;;;8.95;1.35;;;12.00;99.90;;;;;;5126198;28;20035;-76
2022/05/08 06:56:49;;;;;;;8.35;1.10;;;12.40;99.90;;;;;;5126260;28;20482;-76
2022/05/08 07:01:59;;;;;;;13.95;1.23;;;11.90;99.90;;;;;;5127169;28;20101;-77
2022/05/08 07:04:25;;;;;;;6.70;0.95;;;11.70;99.90;;;;;;5125900;28;20545;-76
2022/05/08 07:06:51;;;;;;;6.28;1.00;;;12.70;99.90;;;;;;5126695;28;20047;-77
2022/05/08 07:09:17;;;;;;;12.30;1.15;;;12.10;99.90;;;;;;5125688;28;20051;-76
2022/05/08 07:11:47;;;;;;;8.93;1.15;;;11.60;99.90;;;;;;5125483;28;20046;-76
2022/05/08 07:14:14;;;;;;;9.52;1.13;;;11.50;99.90;;;;;;5108112;27;20122;-77
2022/05/08 07:16:40;;;;;;;7.53;2.33;;;11.40;99.90;;;;;;5128173;27;20068;-77
2022/05/08 07:19:06;;;;;;;10.10;1.60;;;11.50;99.90;;;;;;5111740;27;20171;-77
2022/05/08 07:21:31;;;;;;;7.60;1.83;;;11.60;99.90;;;;;;5129496;27;20154;-77
2022/05/08 07:23:57;;;;;;;6.13;1.70;;;11.80;99.90;;;;;;5130015;27;20054;-77
2022/05/08 07:26:23;;;;;;;9.23;1.40;;;13.10;99.90;;;;;;5129715;27;20089;-77
2022/05/08 07:28:48;;;;;;;9.00;1.20;;;11.70;99.90;;;;;;5129260;27;20067;-77
2022/05/08 07:31:14;;;;;;;6.03;0.85;;;12.30;99.90;;;;;;5111563;27;20075;-77
2022/05/08 07:33:40;;;;;;;3.90;0.90;;;12.30;99.90;;;;;;5129179;27;20095;-77
2022/05/08 07:36:15;;;;;;;6.28;1.10;;;12.40;99.90;;;;;;5130171;27;20478;-75
2022/05/08 07:38:46;;;;;;;6.70;0.95;;;12.40;99.90;;;;;;5129222;27;20050;-76
2022/05/08 07:41:16;;;;;;;6.65;1.10;;;12.90;99.90;;;;;;5111867;27;20076;-76
2022/05/08 07:43:46;;;;;;;9.40;0.98;;;12.70;99.90;;;;;;5129663;27;20477;-76
2022/05/08 07:46:12;;;;;;;9.63;1.20;;;14.10;99.90;;;;;;5129081;27;20603;-76
2022/05/08 07:48:38;;;;;;;7.65;0.80;;;13.00;99.90;;;;;;5111510;27;20093;-76
2022/05/08 07:51:04;;;;;;;11.35;1.25;;;13.00;99.90;;;;;;5128926;27;20419;-76
2022/05/08 07:53:31;;;;;;;4.53;0.90;;;13.70;99.90;;;;;;5130027;27;20042;-76
2022/05/08 07:56:00;;;;;;;5.20;1.27;;;13.20;99.90;;;;;;5110504;27;20042;-76
2022/05/08 07:58:32;;;;;;;4.47;0.73;;;13.30;99.90;;;;;;5129456;27;20066;-76
2022/05/08 08:00:59;;;;;;;2.90;0.68;;;13.70;99.90;;;;;;5129711;27;20038;-76
2022/05/08 08:03:27;;;;;;;4.63;0.85;;;13.50;99.90;;;;;;5128711;27;20042;-76
2022/05/08 08:05:54;;;;;;;7.25;1.23;;;13.30;99.90;;;;;;5129257;27;20084;-75
2022/05/08 08:08:25;;;;;;;6.78;1.15;;;13.10;99.90;;;;;;5110718;27;20523;-76
2022/05/08 08:10:56;;;;;;;8.98;1.25;;;12.90;99.90;;;;;;5130611;27;20087;-76
2022/05/08 08:13:24;;;;;;;5.22;1.75;;;12.90;99.90;;;;;;5111674;27;20443;-78
2022/05/08 08:15:50;;;;;;;4.78;0.80;;;13.00;99.90;;;;;;5076358;27;20047;-75
2022/05/08 08:18:18;;;;;;;5.18;1.00;;;13.70;99.90;;;;;;5129132;27;20126;-76
2022/05/08 08:20:44;;;;;;;5.53;1.77;;;13.90;99.90;;;;;;5127997;27;20490;-76
2022/05/08 08:23:10;;;;;;;11.00;1.63;;;13.00;99.90;;;;;;5129363;27;20054;-76
2022/05/08 08:25:36;;;;;;;6.65;1.02;;;13.40;99.90;;;;;;5109736;27;20039;-76
2022/05/08 08:28:01;;;;;;;13.50;2.15;;;13.10;99.90;;;;;;5128823;27;20520;-74
2022/05/08 08:30:28;;;;;;;4.68;0.95;;;13.40;99.90;;;;;;5111305;27;20074;-75
2022/05/08 08:32:54;;;;;;;11.27;1.17;;;13.90;99.90;;;;;;5110965;27;20043;-74
2022/05/08 08:35:20;;;;;;;5.55;0.70;;;14.10;99.90;;;;;;5130267;27;20088;-73
2022/05/08 08:37:45;;;;;;;5.85;1.10;;;14.40;99.90;;;;;;5128858;27;20375;-73
2022/05/08 08:40:12;;;;;;;9.93;1.05;;;14.80;99.90;;;;;;5111763;27;20047;-74
2022/05/08 08:42:41;;;;;;;5.30;1.08;;;15.00;99.70;;;;;;5110801;27;20047;-72
2022/05/08 08:47:58;;;;;;;5.75;1.20;;;15.40;97.90;;;;;;5129312;27;20501;-75
2022/05/08 08:50:27;;;;;;;8.88;1.23;;;15.50;96.30;;;;;;5128605;27;20036;-74
2022/05/08 08:53:01;;;;;;;7.88;1.38;;;15.60;96.70;;;;;;5130129;27;20058;-75
2022/05/08 08:55:27;;;;;;;8.48;1.35;;;15.80;95.90;;;;;;5128787;27;20108;-75
2022/05/08 08:57:54;;;;;;;7.80;1.95;;;16.10;95.50;;;;;;5129455;27;20039;-75
2022/05/08 09:00:21;;;;;;;16.17;1.50;;;16.20;94.80;;;;;;5129248;27;20566;-75
2022/05/08 09:02:48;;;;;;;14.45;1.95;;;16.20;94.30;;;;;;5128599;27;20040;-75
2022/05/08 09:05:14;;;;;;;6.10;2.00;;;16.30;94.30;;;;;;5129763;27;20062;-73
2022/05/08 09:07:48;;;;;;;4.60;1.25;;;16.30;94.20;;;;;;5109768;27;20112;-73
2022/05/08 09:10:28;;;;;;;11.88;3.00;;;16.30;92.50;;;;;;5111004;27;20528;-73
2022/05/08 09:12:54;;;;;;;7.25;1.73;;;16.30;92.50;;;;;;5092900;27;20043;-74
2022/05/08 09:15:28;;;;;;;7.93;1.27;;;16.20;95.70;;;;;;5129051;27;20035;-73
2022/05/08 09:18:06;;;;;;;6.82;1.65;;;16.20;93.70;;;;;;5110670;27;20083;-73
2022/05/08 09:20:33;;;;;;;6.85;1.30;;;16.00;94.50;;;;;;5109615;27;20170;-73
2022/05/08 09:23:04;;;;;;;5.35;1.20;;;15.70;96.00;;;;;;5111373;27;20035;-73
2022/05/08 09:25:51;;;;;;;8.45;1.23;;;15.50;96.30;;;;;;5109732;27;20043;-73
2022/05/08 09:28:41;;;;;;;5.78;1.45;;;15.20;91.70;;;;;;5128490;27;20080;-74
2022/05/08 09:31:15;;;;;;;5.72;1.13;;;14.80;91.20;;;;;;5110544;27;20046;-73
2022/05/08 09:33:44;;;;;;;6.90;1.38;;;14.50;97.30;;;;;;5109411;27;20050;-73
2022/05/08 09:36:24;;;;;;;5.68;1.10;;;14.50;98.30;;;;;;5110728;27;20422;-73
2022/05/08 09:38:55;;;;;;;7.32;1.48;;;14.70;97.50;;;;;;5092858;27;20095;-73
2022/05/08 09:41:32;;;;;;;10.27;1.55;;;14.90;97.10;;;;;;5092690;27;20039;-73
2022/05/08 09:44:17;;;;;;;11.43;1.55;;;15.10;93.60;;;;;;5094194;27;20042;-75
2022/05/08 09:46:48;;;;;;;8.93;1.05;;;15.40;93.70;;;;;;5109251;27;20043;-73
2022/05/08 09:49:19;;;;;;;5.25;1.02;;;15.50;94.50;;;;;;5109733;27;20047;-73
2022/05/08 09:51:46;;;;;;;4.00;1.33;;;15.60;94.30;;;;;;5110353;27;20043;-73
2022/05/08 09:54:14;;;;;;;10.07;1.83;;;15.70;95.10;;;;;;5109193;27;20130;-74
2022/05/08 09:56:42;;;;;;;6.90;1.45;;;15.80;94.10;;;;;;5110061;27;20125;-73
2022/05/08 09:59:10;;;;;;;5.35;1.00;;;15.80;94.60;;;;;;5109081;27;20174;-72
2022/05/08 10:01:40;;;;;;;6.53;1.58;;;15.80;94.10;;;;;;5109910;28;20103;-72
2022/05/08 10:04:06;;;;;;;6.85;0.93;;;15.90;91.50;;;;;;5109095;27;20050;-72
2022/05/08 10:06:35;;;;;;;7.38;1.35;;;15.90;92.90;;;;;;5109247;28;20043;-73
2022/05/08 10:14:34;;;;;;;7.55;0.80;;;15.80;92.10;;;;;;5129052;28;20039;-73
2022/05/08 10:17:00;;;;;;;7.68;1.10;;;16.00;91.40;;;;;;5127649;28;20375;-73
2022/05/08 10:19:25;;;;;;;11.20;1.33;;;16.10;90.30;;;;;;5109736;28;20079;-72
2022/05/08 10:21:57;;;;;;;7.30;1.30;;;16.20;89.80;;;;;;5110159;28;20421;-72
2022/05/08 10:24:36;;;;;;;10.35;1.67;;;16.30;88.60;;;;;;5109357;28;20082;-73
2022/05/08 10:27:14;;;;;;;11.68;1.42;;;16.30;85.80;;;;;;5110526;28;20135;-73
2022/05/08 10:30:02;;;;;;;8.68;1.38;;;16.30;86.40;;;;;;5108973;28;20089;-72
2022/05/08 10:32:33;;;;;;;10.80;1.50;;;16.40;80.10;;;;;;5093059;28;20055;-74
2022/05/08 10:35:12;;;;;;;4.80;1.10;;;16.40;85.80;;;;;;5110185;28;20067;-74
2022/05/08 10:37:38;;;;;;;6.70;1.10;;;16.40;84.80;;;;;;5108765;28;20050;-74
2022/05/08 10:40:25;;;;;;;7.57;1.83;;;16.40;88.50;;;;;;5076006;28;20075;-74
2022/05/08 10:43:10;;;;;;;11.30;1.55;;;16.20;80.10;;;;;;5109270;28;20047;-73
2022/05/08 10:45:39;;;;;;;7.57;1.38;;;16.00;82.70;;;;;;5127407;28;20438;-73
2022/05/08 10:48:16;;;;;;;5.82;1.02;;;16.00;90.10;;;;;;5109637;28;20044;-73
2022/05/08 10:50:48;;;;;;;3.65;1.10;;;16.30;82.60;;;;;;5128731;27;20098;-74
2022/05/08 10:53:26;;;;;;;4.57;1.10;;;16.40;81.30;;;;;;5096307;27;20042;-73
2022/05/08 10:55:57;;;;;;;8.90;1.08;;;16.50;77.50;;;;;;5112968;27;20091;-73
2022/05/08 10:58:23;;;;;;;6.10;1.40;;;16.50;78.90;;;;;;5112402;27;20214;-73
2022/05/08 11:00:54;;;;;;;5.13;1.20;;;16.50;78.10;;;;;;5113410;27;20138;-73
2022/05/08 11:03:21;;;;;;;7.43;0.95;;;16.60;79.30;;;;;;5131093;27;20429;-73
2022/05/08 11:05:48;;;;;;;7.18;1.08;;;16.60;78.00;;;;;;5113742;27;20058;-72
2022/05/08 11:08:23;;;;;;;9.57;1.10;;;16.50;79.60;;;;;;5130874;27;20937;-72
2022/05/08 11:10:59;;;;;;;4.45;1.05;;;16.60;75.30;;;;;;5131336;27;20086;-73
2022/05/08 11:13:26;;;;;;;4.88;1.02;;;16.80;71.20;;;;;;5132415;27;20046;-74
2022/05/08 11:15:52;;;;;;;8.77;1.13;;;16.90;77.00;;;;;;5078905;27;20051;-73
2022/05/08 11:18:23;;;;;;;6.82;1.00;;;16.90;76.10;;;;;;5113270;27;20452;-74
2022/05/08 11:21:00;;;;;;;6.20;1.08;;;17.00;76.50;;;;;;5131067;27;20043;-73
2022/05/08 11:23:34;;;;;;;3.95;1.08;;;17.20;73.70;;;;;;5131657;27;20047;-73
2022/05/08 11:26:01;;;;;;;7.22;1.52;;;17.40;71.90;;;;;;5113297;27;20085;-72
2022/05/08 11:28:28;;;;;;;9.65;1.52;;;17.50;74.80;;;;;;5094973;27;20043;-74
2022/05/08 11:30:56;;;;;;;7.85;1.67;;;17.50;74.30;;;;;;5113397;27;20449;-73
2022/05/08 11:36:27;;;;;;;10.65;1.70;;;17.60;70.20;;;;;;5112648;27;20086;-74
2022/05/08 11:38:58;;;;;;;6.93;1.30;;;17.50;69.90;;;;;;5096267;27;20087;-76
2022/05/08 11:41:33;;;;;;;11.77;1.25;;;17.50;71.60;;;;;;5111408;27;20068;-75
2022/05/08 11:44:04;;;;;;;9.20;1.67;;;17.50;69.40;;;;;;5112819;27;20043;-78
2022/05/08 11:46:37;;;;;;;5.22;1.13;;;17.60;71.00;;;;;;5111853;27;20474;-73
2022/05/08 11:49:24;;;;;;;8.10;1.20;;;17.70;68.30;;;;;;5095108;27;20047;-74
2022/05/08 11:51:54;;;;;;;8.43;1.48;;;17.90;67.60;;;;;;5112193;27;20524;-74
2022/05/08 11:54:27;;;;;;;5.97;1.35;;;17.90;68.70;;;;;;5094304;27;20301;-74
2022/05/08 11:57:13;;;;;;;9.13;1.85;;;17.70;67.10;;;;;;5130909;27;20038;-74
2022/05/08 11:59:40;;;;;;;6.10;1.48;;;17.60;65.20;;;;;;5094875;27;20045;-74
2022/05/08 12:02:05;;;;;;;7.35;1.88;;;17.60;68.50;;;;;;5111012;27;20505;-73
2022/05/08 12:04:33;;;;;;;6.10;1.35;;;17.70;67.80;;;;;;5111868;27;20071;-74
2022/05/08 12:07:09;;;;;;;4.35;1.45;;;18.60;67.50;;;;;;5129048;27;20532;-75
2022/05/08 12:09:48;;;;;;;7.20;1.45;;;17.90;66.60;;;;;;5130183;27;20286;-75
2022/05/08 12:12:26;;;;;;;5.03;1.23;;;18.00;65.20;;;;;;5129675;27;20051;-74
2022/05/08 12:14:53;;;;;;;9.43;1.30;;;18.10;63.70;;;;;;5129688;27;20505;-74
2022/05/08 12:17:19;;;;;;;6.15;1.55;;;18.00;64.40;;;;;;5111780;27;20054;-74
2022/05/08 12:19:53;;;;;;;6.63;0.82;;;18.00;64.40;;;;;;5094248;27;20058;-74
2022/05/08 12:22:22;;;;;;;6.50;1.20;;;18.10;63.10;;;;;;5111707;27;20506;-74
2022/05/08 12:24:48;;;;;;;5.35;1.17;;;18.20;62.40;;;;;;5129149;27;20168;-73
2022/05/08 12:27:14;;;;;;;6.18;1.02;;;18.30;62.70;;;;;;5111600;27;20047;-74
2022/05/08 12:29:43;;;;;;;8.55;1.40;;;18.30;61.70;;;;;;5129765;27;20046;-75
2022/05/08 12:32:09;;;;;;;5.70;0.90;;;18.30;61.10;;;;;;5129353;27;20110;-75
2022/05/08 12:34:35;;;;;;;6.85;1.15;;;18.30;61.50;;;;;;5111648;27;20907;-75
2022/05/08 12:37:01;;;;;;;9.20;1.70;;;18.40;61.40;;;;;;5110757;27;20049;-73
2022/05/08 12:39:26;;;;;;;6.22;0.73;;;18.40;61.50;;;;;;5094758;27;20439;-75
2022/05/08 12:41:52;;;;;;;5.75;1.00;;;18.40;60.80;;;;;;5110815;27;20043;-75
2022/05/08 12:44:18;;;;;;;7.32;1.33;;;18.40;60.40;;;;;;5129436;27;20465;-76
2022/05/08 12:46:43;;;;;;;6.57;1.00;;;18.50;61.90;;;;;;5129520;27;20039;-74
2022/05/08 12:49:12;;;;;;;7.25;1.45;;;18.50;60.10;;;;;;5110333;27;20055;-74
2022/05/08 12:51:39;;;;;;;7.78;1.33;;;18.50;60.20;;;;;;5129891;27;20062;-74
2022/05/08 12:54:05;;;;;;;7.85;1.30;;;18.60;60.60;;;;;;5110041;27;20058;-74
2022/05/08 12:56:32;;;;;;;10.18;1.52;;;18.80;60.30;;;;;;5129413;27;20039;-74
2022/05/08 13:01:46;;;;;;;5.22;1.48;;;18.80;57.30;;;;;;5129113;27;20134;-74
2022/05/08 13:04:12;;;;;;;7.32;1.75;;;18.80;58.40;;;;;;5110580;27;20058;-75
2022/05/08 13:06:38;;;;;;;6.97;1.00;;;18.70;58.40;;;;;;5110023;27;20502;-74
2022/05/08 13:09:08;;;;;;;5.90;1.35;;;18.70;58.40;;;;;;5110812;27;20051;-74
2022/05/08 13:11:35;;;;;;;8.75;1.42;;;18.70;58.20;;;;;;5128971;27;20039;-74
2022/05/08 13:14:02;;;;;;;6.32;1.60;;;18.80;57.80;;;;;;5109818;27;20055;-74